createdAt,value
2017-01-29T00:00:20.551Z,-2.85
2017-01-29T00:01:20.536Z,-2.89
2017-01-29T00:02:20.517Z,-2.88
2017-01-29T00:03:20.504Z,-2.86
2017-01-29T00:04:20.480Z,-2.88
2017-01-29T00:05:20.463Z,-2.81
2017-01-29T00:06:20.448Z,-2.88
2017-01-29T00:07:20.430Z,-2.91
2017-01-29T00:08:20.414Z,-2.81
2017-01-29T00:09:20.397Z,-2.82
2017-01-29T00:10:20.374Z,-2.88
2017-01-29T00:11:20.358Z,-2.92
2017-01-29T00:12:20.343Z,-2.88
2017-01-29T00:13:20.320Z,-2.89
2017-01-29T00:14:19.918Z,-2.82
2017-01-29T00:15:19.903Z,-2.86
2017-01-29T00:16:20.268Z,-2.85
2017-01-29T00:17:20.283Z,-2.81
2017-01-29T00:18:20.233Z,-2.86
2017-01-29T00:19:20.212Z,-2.86
2017-01-29T00:20:20.195Z,-2.84
2017-01-29T00:21:20.178Z,-2.79
2017-01-29T00:22:20.167Z,-2.85
2017-01-29T00:23:19.752Z,-2.84
2017-01-29T00:24:20.124Z,-2.79
2017-01-29T00:25:20.105Z,-2.86
2017-01-29T00:26:20.087Z,-2.73
2017-01-29T00:27:20.069Z,-2.81
2017-01-29T00:28:20.053Z,-2.85
2017-01-29T00:29:20.034Z,-2.85
2017-01-29T00:30:20.047Z,-2.86
2017-01-29T00:31:19.999Z,-2.88
2017-01-29T00:32:19.983Z,-2.81
2017-01-29T00:33:19.967Z,-2.82
2017-01-29T00:34:19.946Z,-2.82
2017-01-29T00:35:19.932Z,-2.81
2017-01-29T00:36:19.911Z,-2.73
2017-01-29T00:37:19.890Z,-2.79
2017-01-29T00:38:19.878Z,-2.85
2017-01-29T00:39:19.855Z,-2.85
2017-01-29T00:40:19.835Z,-2.89
2017-01-29T00:41:19.817Z,-2.88
2017-01-29T00:42:19.834Z,-2.81
2017-01-29T00:43:19.783Z,-2.85
2017-01-29T00:44:19.771Z,-2.89
2017-01-29T00:45:19.744Z,-2.89
2017-01-29T00:46:19.731Z,-2.86
2017-01-29T00:47:19.717Z,-2.79
2017-01-29T00:48:19.694Z,-2.89
2017-01-29T00:49:19.682Z,-2.85
2017-01-29T00:50:19.658Z,-2.77
2017-01-29T00:51:19.251Z,-2.78
2017-01-29T00:52:19.621Z,-2.79
2017-01-29T00:53:19.600Z,-2.73
2017-01-29T00:54:19.584Z,-2.81
2017-01-29T00:55:19.573Z,-2.7
2017-01-29T00:56:19.547Z,-2.73
2017-01-29T00:57:19.528Z,-2.71
2017-01-29T00:58:19.516Z,-2.84
2017-01-29T00:59:19.497Z,-2.71
2017-01-29T01:00:19.476Z,-2.71
2017-01-29T01:01:19.458Z,-2.71
2017-01-29T01:02:19.054Z,-2.7
2017-01-29T01:03:19.422Z,-2.67
2017-01-29T01:04:19.405Z,-2.73
2017-01-29T01:05:19.386Z,-2.68
2017-01-29T01:06:19.368Z,-2.7
2017-01-29T01:07:19.351Z,-2.7
2017-01-29T01:08:19.338Z,-2.71
2017-01-29T01:09:19.321Z,-2.78
2017-01-29T01:10:19.319Z,-2.7
2017-01-29T01:11:18.897Z,-2.79
2017-01-29T01:12:19.261Z,-2.74
2017-01-29T01:13:19.246Z,-2.68
2017-01-29T01:14:19.226Z,-2.77
2017-01-29T01:15:18.820Z,-2.66
2017-01-29T01:16:19.194Z,-2.56
2017-01-29T01:17:19.172Z,-2.63
2017-01-29T01:18:19.157Z,-2.7
2017-01-29T01:19:19.139Z,-2.66
2017-01-29T01:20:18.734Z,-2.56
2017-01-29T01:21:19.100Z,-2.77
2017-01-29T01:22:19.086Z,-2.68
2017-01-29T01:23:19.064Z,-2.7
2017-01-29T01:24:18.660Z,-2.71
2017-01-29T01:25:19.029Z,-2.71
2017-01-29T01:26:19.010Z,-2.74
2017-01-29T01:27:18.995Z,-2.71
2017-01-29T01:28:18.976Z,-2.66
2017-01-29T01:29:18.954Z,-2.63
2017-01-29T01:30:18.943Z,-2.61
2017-01-29T01:31:18.922Z,-2.74
2017-01-29T01:32:18.904Z,-2.61
2017-01-29T01:33:18.907Z,-2.68
2017-01-29T01:34:18.867Z,-2.6
2017-01-29T01:35:18.854Z,-2.61
2017-01-29T01:36:18.860Z,-2.63
2017-01-29T01:37:18.814Z,-2.64
2017-01-29T01:38:18.798Z,-2.66
2017-01-29T01:39:18.778Z,-2.63
2017-01-29T01:40:18.762Z,-2.6
2017-01-29T01:41:18.743Z,-2.58
2017-01-29T01:42:18.724Z,-2.73
2017-01-29T01:43:18.708Z,-2.63
2017-01-29T01:44:18.302Z,-2.66
2017-01-29T01:45:18.677Z,-2.66
2017-01-29T01:46:18.655Z,-2.61
2017-01-29T01:47:18.636Z,-2.73
2017-01-29T01:48:18.232Z,-2.67
2017-01-29T01:49:18.212Z,-2.73
2017-01-29T01:50:18.583Z,-2.68
2017-01-29T01:51:18.180Z,-2.7
2017-01-29T01:52:18.554Z,-2.64
2017-01-29T01:53:18.530Z,-2.67
2017-01-29T01:54:18.123Z,-2.63
2017-01-29T01:55:18.105Z,-2.66
2017-01-29T01:56:18.476Z,-2.68
2017-01-29T01:57:18.077Z,-2.7
2017-01-29T01:58:18.442Z,-2.61
2017-01-29T01:59:18.425Z,-2.68
2017-01-29T02:00:18.406Z,-2.58
2017-01-29T02:01:18.392Z,-2.64
2017-01-29T02:02:17.983Z,-2.68
2017-01-29T02:03:18.352Z,-2.67
2017-01-29T02:04:17.950Z,-2.67
2017-01-29T02:05:18.315Z,-2.63
2017-01-29T02:06:18.300Z,-2.63
2017-01-29T02:07:17.899Z,-2.7
2017-01-29T02:08:18.266Z,-2.68
2017-01-29T02:09:17.861Z,-2.58
2017-01-29T02:10:18.227Z,-2.77
2017-01-29T02:11:18.212Z,-2.6
2017-01-29T02:12:17.805Z,-2.66
2017-01-29T02:13:18.186Z,-2.58
2017-01-29T02:14:17.771Z,-2.63
2017-01-29T02:15:18.144Z,-2.64
2017-01-29T02:16:18.123Z,-2.71
2017-01-29T02:17:18.113Z,-2.66
2017-01-29T02:18:18.095Z,-2.66
2017-01-29T02:19:18.073Z,-2.66
2017-01-29T02:20:18.058Z,-2.55
2017-01-29T02:21:18.046Z,-2.71
2017-01-29T02:22:18.052Z,-2.64
2017-01-29T02:23:18.002Z,-2.63
2017-01-29T02:24:17.983Z,-2.68
2017-01-29T02:25:17.966Z,-2.68
2017-01-29T02:26:17.946Z,-2.63
2017-01-29T02:27:17.927Z,-2.74
2017-01-29T02:28:17.914Z,-2.73
2017-01-29T02:29:17.895Z,-2.73
2017-01-29T02:30:17.878Z,-2.74
2017-01-29T02:31:17.854Z,-2.61
2017-01-29T02:32:17.840Z,-2.67
2017-01-29T02:33:17.842Z,-2.61
2017-01-29T02:34:17.806Z,-2.63
2017-01-29T02:35:17.784Z,-2.66
2017-01-29T02:36:17.767Z,-2.6
2017-01-29T02:37:17.748Z,-2.63
2017-01-29T02:38:17.345Z,-2.63
2017-01-29T02:39:17.715Z,-2.68
2017-01-29T02:40:17.701Z,-2.53
2017-01-29T02:41:17.290Z,-2.64
2017-01-29T02:42:17.660Z,-2.63
2017-01-29T02:43:17.643Z,-2.61
2017-01-29T02:44:17.624Z,-2.55
2017-01-29T02:45:17.606Z,-2.56
2017-01-29T02:46:17.598Z,-2.53
2017-01-29T02:47:17.577Z,-2.53
2017-01-29T02:48:17.170Z,-2.56
2017-01-29T02:49:17.536Z,-2.6
2017-01-29T02:50:17.523Z,-2.52
2017-01-29T02:51:17.506Z,-2.6
2017-01-29T02:52:17.483Z,-2.58
2017-01-29T02:53:17.465Z,-2.61
2017-01-29T02:54:17.449Z,-2.56
2017-01-29T02:55:17.430Z,-2.56
2017-01-29T02:56:17.413Z,-2.61
2017-01-29T02:57:17.400Z,-2.58
2017-01-29T02:58:17.381Z,-2.61
2017-01-29T02:59:16.970Z,-2.56
2017-01-29T03:00:17.347Z,-2.63
2017-01-29T03:01:17.323Z,-2.6
2017-01-29T03:02:17.305Z,-2.58
2017-01-29T03:03:17.296Z,-2.61
2017-01-29T03:04:17.271Z,-2.56
2017-01-29T03:05:17.255Z,-2.56
2017-01-29T03:06:17.236Z,-2.52
2017-01-29T03:07:17.216Z,-2.53
2017-01-29T03:08:17.199Z,-2.56
2017-01-29T03:09:17.196Z,-2.52
2017-01-29T03:10:16.779Z,-2.6
2017-01-29T03:11:17.145Z,-2.53
2017-01-29T03:12:16.743Z,-2.5
2017-01-29T03:13:17.114Z,-2.52
2017-01-29T03:14:17.096Z,-2.58
2017-01-29T03:15:17.074Z,-2.6
2017-01-29T03:16:17.056Z,-2.58
2017-01-29T03:17:17.040Z,-2.52
2017-01-29T03:18:17.021Z,-2.55
2017-01-29T03:19:17.004Z,-2.49
2017-01-29T03:20:16.986Z,-2.53
2017-01-29T03:21:16.970Z,-2.53
2017-01-29T03:22:16.960Z,-2.48
2017-01-29T03:23:16.953Z,-2.55
2017-01-29T03:24:16.914Z,-2.52
2017-01-29T03:25:16.904Z,-2.56
2017-01-29T03:26:16.881Z,-2.52
2017-01-29T03:27:16.864Z,-2.55
2017-01-29T03:28:16.843Z,-2.45
2017-01-29T03:29:16.823Z,-2.56
2017-01-29T03:30:16.806Z,-2.53
2017-01-29T03:31:16.789Z,-2.56
2017-01-29T03:32:16.773Z,-2.49
2017-01-29T03:33:16.368Z,-2.58
2017-01-29T03:34:16.735Z,-2.6
2017-01-29T03:35:16.332Z,-2.56
2017-01-29T03:36:16.700Z,-2.6
2017-01-29T03:37:16.303Z,-2.61
2017-01-29T03:38:16.665Z,-2.56
2017-01-29T03:39:16.650Z,-2.61
2017-01-29T03:40:16.629Z,-2.55
2017-01-29T03:41:16.228Z,-2.53
2017-01-29T03:42:16.594Z,-2.56
2017-01-29T03:43:16.586Z,-2.58
2017-01-29T03:44:16.562Z,-2.56
2017-01-29T03:45:16.153Z,-2.64
2017-01-29T03:46:16.134Z,-2.58
2017-01-29T03:47:16.531Z,-2.64
2017-01-29T03:48:16.485Z,-2.6
2017-01-29T03:49:16.472Z,-2.58
2017-01-29T03:50:16.453Z,-2.6
2017-01-29T03:51:16.434Z,-2.61
2017-01-29T03:52:16.417Z,-2.61
2017-01-29T03:53:16.401Z,-2.6
2017-01-29T03:54:16.381Z,-2.5
2017-01-29T03:55:16.363Z,-2.49
2017-01-29T03:56:15.573Z,-2.48
2017-01-29T03:57:16.326Z,-2.53
2017-01-29T03:58:16.309Z,-2.48
2017-01-29T03:59:16.290Z,-2.56
2017-01-29T04:00:16.273Z,-2.43
2017-01-29T04:01:16.285Z,-2.48
2017-01-29T04:02:15.858Z,-2.48
2017-01-29T04:03:16.221Z,-2.49
2017-01-29T04:04:16.203Z,-2.49
2017-01-29T04:05:16.184Z,-2.52
2017-01-29T04:06:16.168Z,-2.49
2017-01-29T04:07:16.150Z,-2.52
2017-01-29T04:08:16.132Z,-2.43
2017-01-29T04:09:16.140Z,-2.52
2017-01-29T04:10:15.710Z,-2.49
2017-01-29T04:11:16.078Z,-2.52
2017-01-29T04:12:16.314Z,-2.55
2017-01-29T04:13:15.656Z,-2.48
2017-01-29T04:14:15.641Z,-2.55
2017-01-29T04:15:16.009Z,-2.48
2017-01-29T04:16:15.602Z,-2.52
2017-01-29T04:17:15.972Z,-2.53
2017-01-29T04:18:15.956Z,-2.55
2017-01-29T04:19:15.553Z,-2.55
2017-01-29T04:20:15.919Z,-2.61
2017-01-29T04:21:15.903Z,-2.58
2017-01-29T04:22:15.885Z,-2.55
2017-01-29T04:23:15.873Z,-2.53
2017-01-29T04:24:15.463Z,-2.61
2017-01-29T04:25:15.087Z,-2.7
2017-01-29T04:26:15.044Z,-2.64
2017-01-29T04:27:15.798Z,-2.7
2017-01-29T04:28:15.782Z,-2.58
2017-01-29T04:29:15.775Z,-2.63
2017-01-29T04:30:15.742Z,-2.63
2017-01-29T04:31:15.726Z,-2.66
2017-01-29T04:32:15.320Z,-2.63
2017-01-29T04:33:15.716Z,-2.7
2017-01-29T04:34:15.672Z,-2.7
2017-01-29T04:35:15.268Z,-2.68
2017-01-29T04:36:15.257Z,-2.66
2017-01-29T04:37:15.922Z,-2.7
2017-01-29T04:38:15.601Z,-2.64
2017-01-29T04:39:15.586Z,-2.61
2017-01-29T04:40:15.178Z,-2.66
2017-01-29T04:41:15.160Z,-2.61
2017-01-29T04:42:15.534Z,-2.66
2017-01-29T04:43:15.125Z,-2.61
2017-01-29T04:44:15.494Z,-2.61
2017-01-29T04:45:15.475Z,-2.56
2017-01-29T04:46:15.072Z,-2.67
2017-01-29T04:47:15.053Z,-2.66
2017-01-29T04:48:15.040Z,-2.7
2017-01-29T04:49:15.406Z,-2.55
2017-01-29T04:50:15.389Z,-2.66
2017-01-29T04:51:14.984Z,-2.63
2017-01-29T04:52:15.356Z,-2.61
2017-01-29T04:53:15.333Z,-2.61
2017-01-29T04:54:15.317Z,-2.73
2017-01-29T04:55:15.300Z,-2.61
2017-01-29T04:56:15.282Z,-2.63
2017-01-29T04:57:15.292Z,-2.63
2017-01-29T04:58:14.864Z,-2.61
2017-01-29T04:59:15.244Z,-2.61
2017-01-29T05:00:14.829Z,-2.7
2017-01-29T05:01:15.215Z,-2.63
2017-01-29T05:02:14.788Z,-2.61
2017-01-29T05:03:15.154Z,-2.64
2017-01-29T05:04:14.750Z,-2.61
2017-01-29T05:05:15.121Z,-2.67
2017-01-29T05:06:14.715Z,-2.64
2017-01-29T05:07:15.094Z,-2.6
2017-01-29T05:08:15.068Z,-2.64
2017-01-29T05:09:15.048Z,-2.7
2017-01-29T05:10:14.644Z,-2.67
2017-01-29T05:11:15.017Z,-2.66
2017-01-29T05:12:15.002Z,-2.58
2017-01-29T05:13:14.590Z,-2.64
2017-01-29T05:14:14.575Z,-2.61
2017-01-29T05:15:14.943Z,-2.63
2017-01-29T05:16:14.924Z,-2.66
2017-01-29T05:17:14.520Z,-2.63
2017-01-29T05:18:14.508Z,-2.63
2017-01-29T05:19:14.871Z,-2.63
2017-01-29T05:20:14.858Z,-2.68
2017-01-29T05:21:14.448Z,-2.67
2017-01-29T05:22:14.818Z,-2.66
2017-01-29T05:23:14.798Z,-2.66
2017-01-29T05:24:14.791Z,-2.63
2017-01-29T05:25:14.764Z,-2.66
2017-01-29T05:26:14.745Z,-2.58
2017-01-29T05:27:14.730Z,-2.55
2017-01-29T05:28:14.329Z,-2.61
2017-01-29T05:29:14.694Z,-2.6
2017-01-29T05:30:14.674Z,-2.63
2017-01-29T05:31:14.269Z,-2.53
2017-01-29T05:32:14.637Z,-2.52
2017-01-29T05:33:14.237Z,-2.55
2017-01-29T05:34:14.215Z,-2.63
2017-01-29T05:35:14.199Z,-2.63
2017-01-29T05:36:14.570Z,-2.7
2017-01-29T05:37:14.163Z,-2.66
2017-01-29T05:38:14.149Z,-2.63
2017-01-29T05:39:14.523Z,-2.55
2017-01-29T05:40:14.110Z,-2.64
2017-01-29T05:41:14.093Z,-2.58
2017-01-29T05:42:14.077Z,-2.64
2017-01-29T05:43:14.444Z,-2.6
2017-01-29T05:44:14.469Z,-2.63
2017-01-29T05:45:14.407Z,-2.58
2017-01-29T05:46:14.005Z,-2.61
2017-01-29T05:47:13.990Z,-2.53
2017-01-29T05:48:14.356Z,-2.53
2017-01-29T05:49:14.338Z,-2.56
2017-01-29T05:50:13.932Z,-2.64
2017-01-29T05:51:14.302Z,-2.61
2017-01-29T05:52:14.287Z,-2.63
2017-01-29T05:53:14.268Z,-2.61
2017-01-29T05:54:13.891Z,-2.63
2017-01-29T05:55:14.230Z,-2.61
2017-01-29T05:56:14.214Z,-2.55
2017-01-29T05:57:14.195Z,-2.63
2017-01-29T05:58:14.178Z,-2.55
2017-01-29T05:59:14.160Z,-2.53
2017-01-29T06:00:14.144Z,-2.52
2017-01-29T06:01:14.127Z,-2.63
2017-01-29T06:02:14.106Z,-2.67
2017-01-29T06:03:14.096Z,-2.64
2017-01-29T06:04:14.069Z,-2.64
2017-01-29T06:05:13.670Z,-2.6
2017-01-29T06:06:13.649Z,-2.61
2017-01-29T06:07:14.022Z,-2.67
2017-01-29T06:08:14.000Z,-2.68
2017-01-29T06:09:13.982Z,-2.66
2017-01-29T06:10:13.962Z,-2.71
2017-01-29T06:11:13.946Z,-2.7
2017-01-29T06:12:13.933Z,-2.66
2017-01-29T06:13:13.908Z,-2.74
2017-01-29T06:14:13.890Z,-2.73
2017-01-29T06:15:13.876Z,-2.77
2017-01-29T06:16:13.860Z,-2.73
2017-01-29T06:17:13.838Z,-2.77
2017-01-29T06:18:13.820Z,-2.78
2017-01-29T06:19:13.802Z,-2.68
2017-01-29T06:20:13.398Z,-2.66
2017-01-29T06:21:13.380Z,-2.78
2017-01-29T06:22:13.362Z,-2.74
2017-01-29T06:23:13.732Z,-2.66
2017-01-29T06:24:13.718Z,-2.78
2017-01-29T06:25:13.720Z,-2.78
2017-01-29T06:26:13.674Z,-2.73
2017-01-29T06:27:13.664Z,-2.73
2017-01-29T06:28:13.253Z,-2.7
2017-01-29T06:29:13.624Z,-2.77
2017-01-29T06:30:13.640Z,-2.66
2017-01-29T06:31:13.591Z,-2.53
2017-01-29T06:32:13.573Z,-2.66
2017-01-29T06:33:13.165Z,-2.6
2017-01-29T06:34:13.533Z,-2.61
2017-01-29T06:35:13.127Z,-2.64
2017-01-29T06:36:13.498Z,-2.61
2017-01-29T06:37:13.094Z,-2.61
2017-01-29T06:38:13.463Z,-2.68
2017-01-29T06:39:13.445Z,-2.68
2017-01-29T06:40:13.036Z,-2.6
2017-01-29T06:41:13.406Z,-2.64
2017-01-29T06:42:13.428Z,-2.6
2017-01-29T06:43:13.370Z,-2.63
2017-01-29T06:44:13.352Z,-2.64
2017-01-29T06:45:13.335Z,-2.64
2017-01-29T06:46:13.317Z,-2.63
2017-01-29T06:47:13.306Z,-2.64
2017-01-29T06:48:12.895Z,-2.64
2017-01-29T06:49:13.267Z,-2.64
2017-01-29T06:50:12.855Z,-2.63
2017-01-29T06:51:13.230Z,-2.55
2017-01-29T06:52:12.822Z,-2.56
2017-01-29T06:53:13.191Z,-2.49
2017-01-29T06:54:12.785Z,-2.6
2017-01-29T06:55:12.766Z,-2.56
2017-01-29T06:56:13.141Z,-2.61
2017-01-29T06:57:12.731Z,-2.58
2017-01-29T06:58:12.714Z,-2.6
2017-01-29T06:59:12.698Z,-2.56
2017-01-29T07:00:12.682Z,-2.6
2017-01-29T07:01:13.045Z,-2.48
2017-01-29T07:02:12.679Z,-2.55
2017-01-29T07:03:12.623Z,-2.49
2017-01-29T07:04:12.998Z,-2.43
2017-01-29T07:05:12.587Z,-2.52
2017-01-29T07:06:12.572Z,-2.48
2017-01-29T07:07:12.549Z,-2.52
2017-01-29T07:08:12.533Z,-2.45
2017-01-29T07:09:12.902Z,-2.49
2017-01-29T07:10:12.497Z,-2.46
2017-01-29T07:11:12.867Z,-2.35
2017-01-29T07:12:12.470Z,-2.34
2017-01-29T07:13:12.841Z,-2.34
2017-01-29T07:14:12.864Z,-2.37
2017-01-29T07:15:12.795Z,-2.29
2017-01-29T07:16:12.010Z,-2.34
2017-01-29T07:17:12.760Z,-2.3
2017-01-29T07:18:12.745Z,-2.32
2017-01-29T07:19:12.347Z,-2.23
2017-01-29T07:20:12.709Z,-2.24
2017-01-29T07:21:11.918Z,-2.2
2017-01-29T07:22:12.672Z,-2.23
2017-01-29T07:23:12.652Z,-2.16
2017-01-29T07:24:12.248Z,-2.2
2017-01-29T07:25:12.623Z,-2.2
2017-01-29T07:26:12.226Z,-2.15
2017-01-29T07:27:12.592Z,-2.05
2017-01-29T07:28:12.183Z,-2.05
2017-01-29T07:29:12.164Z,-1.97
2017-01-29T07:30:12.534Z,-1.94
2017-01-29T07:31:12.133Z,-1.9
2017-01-29T07:32:12.505Z,-1.87
2017-01-29T07:33:12.482Z,-1.84
2017-01-29T07:34:12.465Z,-1.77
2017-01-29T07:35:12.444Z,-1.77
2017-01-29T07:36:12.428Z,-1.7
2017-01-29T07:37:12.411Z,-1.74
2017-01-29T07:38:12.393Z,-1.69
2017-01-29T07:39:12.377Z,-1.66
2017-01-29T07:40:11.977Z,-1.62
2017-01-29T07:41:11.959Z,-1.61
2017-01-29T07:42:12.327Z,-1.54
2017-01-29T07:43:12.309Z,-1.54
2017-01-29T07:44:11.908Z,-1.58
2017-01-29T07:45:11.890Z,-1.58
2017-01-29T07:46:12.261Z,-1.54
2017-01-29T07:47:12.242Z,-1.54
2017-01-29T07:48:12.224Z,-1.48
2017-01-29T07:49:12.207Z,-1.4
2017-01-29T07:50:11.809Z,-1.46
2017-01-29T07:51:12.178Z,-1.48
2017-01-29T07:52:12.157Z,-1.38
2017-01-29T07:53:12.141Z,-1.38
2017-01-29T07:54:12.128Z,-1.34
2017-01-29T07:55:12.110Z,-1.34
2017-01-29T07:56:12.092Z,-1.34
2017-01-29T07:57:12.075Z,-1.25
2017-01-29T07:58:12.059Z,-1.2
2017-01-29T07:59:12.054Z,-1.13
2017-01-29T08:00:12.036Z,-1.19
2017-01-29T08:01:12.010Z,-1.17
2017-01-29T08:02:11.992Z,-1.28
2017-01-29T08:03:11.977Z,-1.15
2017-01-29T08:04:11.572Z,-1.12
2017-01-29T08:05:11.943Z,-1.13
2017-01-29T08:06:11.924Z,-1.05
2017-01-29T08:07:11.910Z,-0.98
2017-01-29T08:08:11.894Z,-0.97
2017-01-29T08:09:11.876Z,-0.98
2017-01-29T08:10:11.858Z,-0.82
2017-01-29T08:11:11.842Z,-0.83
2017-01-29T08:12:11.444Z,-0.78
2017-01-29T08:13:11.811Z,-0.82
2017-01-29T08:14:11.796Z,-0.67
2017-01-29T08:15:11.781Z,-0.73
2017-01-29T08:16:11.372Z,-0.57
2017-01-29T08:17:11.746Z,-0.67
2017-01-29T08:18:11.728Z,-0.58
2017-01-29T08:19:11.711Z,-0.54
2017-01-29T08:20:11.695Z,-0.54
2017-01-29T08:21:11.685Z,-0.43
2017-01-29T08:22:11.664Z,-0.37
2017-01-29T08:23:11.646Z,-0.37
2017-01-29T08:24:11.633Z,-0.37
2017-01-29T08:25:11.613Z,-0.25
2017-01-29T08:26:11.597Z,-0.18
2017-01-29T08:27:11.588Z,-0.22
2017-01-29T08:28:11.564Z,-0.07
2017-01-29T08:29:11.552Z,-0.18
2017-01-29T08:30:11.532Z,0.02
2017-01-29T08:31:11.520Z,-0.01
2017-01-29T08:32:11.117Z,0.13
2017-01-29T08:33:11.486Z,0.08
2017-01-29T08:34:11.467Z,0.15
2017-01-29T08:35:11.452Z,0.23
2017-01-29T08:36:11.437Z,0.28
2017-01-29T08:37:11.423Z,0.31
2017-01-29T08:38:11.407Z,0.32
2017-01-29T08:39:11.388Z,0.33
2017-01-29T08:40:11.374Z,0.38
2017-01-29T08:41:11.361Z,0.46
2017-01-29T08:42:11.345Z,0.5
2017-01-29T08:43:11.327Z,0.58
2017-01-29T08:44:11.314Z,0.62
2017-01-29T08:45:10.909Z,0.57
2017-01-29T08:46:11.278Z,0.69
2017-01-29T08:47:11.262Z,0.84
2017-01-29T08:48:10.863Z,0.73
2017-01-29T08:49:11.233Z,0.79
2017-01-29T08:50:11.216Z,0.8
2017-01-29T08:51:11.202Z,0.91
2017-01-29T08:52:11.188Z,0.88
2017-01-29T08:53:11.171Z,0.79
2017-01-29T08:54:11.163Z,0.83
2017-01-29T08:55:10.367Z,0.86
2017-01-29T08:56:11.123Z,0.93
2017-01-29T08:57:10.724Z,1.02
2017-01-29T08:58:11.094Z,1.02
2017-01-29T08:59:11.077Z,1.04
2017-01-29T09:00:10.676Z,0.98
2017-01-29T09:01:11.052Z,1.05
2017-01-29T09:02:11.033Z,1.12
2017-01-29T09:03:11.024Z,1.06
2017-01-29T09:04:11.007Z,1.15
2017-01-29T09:05:10.621Z,1.06
2017-01-29T09:06:10.587Z,1.15
2017-01-29T09:07:10.967Z,1.24
2017-01-29T09:08:10.588Z,1.27
2017-01-29T09:09:10.539Z,1.24
2017-01-29T09:10:10.528Z,1.33
2017-01-29T09:11:10.516Z,1.34
2017-01-29T09:12:10.942Z,1.34
2017-01-29T09:13:10.483Z,1.37
2017-01-29T09:14:10.853Z,1.41
2017-01-29T09:15:10.840Z,1.47
2017-01-29T09:16:10.436Z,1.45
2017-01-29T09:17:10.807Z,1.5
2017-01-29T09:18:10.410Z,1.58
2017-01-29T09:19:10.391Z,1.59
2017-01-29T09:20:10.376Z,1.58
2017-01-29T09:21:10.757Z,1.69
2017-01-29T09:22:10.349Z,1.69
2017-01-29T09:23:10.719Z,1.76
2017-01-29T09:24:10.706Z,1.76
2017-01-29T09:25:10.306Z,1.8
2017-01-29T09:26:10.288Z,1.8
2017-01-29T09:27:10.664Z,1.84
2017-01-29T09:28:10.652Z,1.9
2017-01-29T09:29:10.631Z,1.88
2017-01-29T09:30:10.621Z,1.99
2017-01-29T09:31:10.219Z,2.02
2017-01-29T09:32:10.592Z,2.06
2017-01-29T09:33:10.575Z,2.16
2017-01-29T09:34:09.788Z,2.17
2017-01-29T09:35:10.547Z,2.18
2017-01-29T09:36:10.535Z,2.24
2017-01-29T09:37:10.520Z,2.27
2017-01-29T09:38:10.122Z,2.34
2017-01-29T09:39:10.489Z,2.28
2017-01-29T09:40:10.091Z,2.34
2017-01-29T09:41:10.072Z,2.36
2017-01-29T09:42:10.064Z,2.41
2017-01-29T09:43:10.439Z,2.46
2017-01-29T09:44:10.420Z,2.59
2017-01-29T09:45:10.022Z,2.56
2017-01-29T09:46:10.392Z,2.6
2017-01-29T09:47:10.375Z,2.61
2017-01-29T09:48:10.364Z,2.59
2017-01-29T09:49:09.964Z,2.71
2017-01-29T09:50:09.949Z,2.71
2017-01-29T09:51:10.322Z,2.78
2017-01-29T09:52:09.921Z,2.84
2017-01-29T09:53:10.299Z,2.79
2017-01-29T09:54:10.281Z,2.9
2017-01-29T09:55:10.265Z,2.89
2017-01-29T09:56:10.264Z,2.93
2017-01-29T09:57:09.857Z,2.99
2017-01-29T09:58:10.229Z,3.02
2017-01-29T09:59:10.215Z,3.05
2017-01-29T10:00:09.811Z,3.14
2017-01-29T10:01:09.800Z,3.05
2017-01-29T10:02:09.786Z,3.1
2017-01-29T10:03:10.160Z,3.26
2017-01-29T10:04:09.763Z,3.23
2017-01-29T10:05:09.749Z,3.24
2017-01-29T10:06:10.127Z,3.35
2017-01-29T10:07:09.717Z,3.39
2017-01-29T10:08:10.091Z,3.36
2017-01-29T10:09:09.692Z,3.45
2017-01-29T10:10:10.064Z,3.47
2017-01-29T10:11:09.694Z,3.58
2017-01-29T10:12:09.651Z,3.52
2017-01-29T10:13:09.639Z,3.65
2017-01-29T10:14:09.630Z,3.65
2017-01-29T10:15:10.000Z,3.72
2017-01-29T10:16:10.009Z,3.79
2017-01-29T10:17:09.974Z,3.86
2017-01-29T10:18:09.572Z,3.87
2017-01-29T10:19:09.564Z,4
2017-01-29T10:20:09.933Z,3.93
2017-01-29T10:21:09.536Z,3.91
2017-01-29T10:22:09.907Z,4.02
2017-01-29T10:23:09.896Z,4.14
2017-01-29T10:24:09.880Z,4.15
2017-01-29T10:25:09.867Z,4.18
2017-01-29T10:26:09.466Z,4.22
2017-01-29T10:27:09.458Z,4.3
2017-01-29T10:28:09.466Z,4.24
2017-01-29T10:29:09.816Z,4.32
2017-01-29T10:30:09.811Z,4.33
2017-01-29T10:31:09.795Z,4.4
2017-01-29T10:32:09.797Z,4.34
2017-01-29T10:33:09.769Z,4.48
2017-01-29T10:34:09.397Z,4.51
2017-01-29T10:35:09.746Z,4.51
2017-01-29T10:36:09.342Z,4.69
2017-01-29T10:37:09.716Z,4.65
2017-01-29T10:38:09.321Z,4.72
2017-01-29T10:39:09.695Z,4.66
2017-01-29T10:40:09.687Z,4.82
2017-01-29T10:41:09.286Z,4.75
2017-01-29T10:42:09.659Z,4.78
2017-01-29T10:43:09.646Z,4.92
2017-01-29T10:44:09.633Z,4.91
2017-01-29T10:45:09.621Z,5
2017-01-29T10:46:09.222Z,5.09
2017-01-29T10:47:09.209Z,5.09
2017-01-29T10:48:09.224Z,5.12
2017-01-29T10:49:09.187Z,5.15
2017-01-29T10:50:09.177Z,5.18
2017-01-29T10:51:09.547Z,5.24
2017-01-29T10:52:09.152Z,5.27
2017-01-29T10:53:09.529Z,5.3
2017-01-29T10:54:09.510Z,5.39
2017-01-29T10:55:09.499Z,5.42
2017-01-29T10:56:09.492Z,5.42
2017-01-29T10:57:09.091Z,5.48
2017-01-29T10:58:09.083Z,5.56
2017-01-29T10:59:09.066Z,5.46
2017-01-29T11:00:09.054Z,5.61
2017-01-29T11:01:09.430Z,5.65
2017-01-29T11:02:09.036Z,5.72
2017-01-29T11:03:09.021Z,5.75
2017-01-29T11:04:09.006Z,5.81
2017-01-29T11:05:09.383Z,5.89
2017-01-29T11:06:09.370Z,5.82
2017-01-29T11:07:09.358Z,5.85
2017-01-29T11:08:09.349Z,5.96
2017-01-29T11:09:08.955Z,5.99
2017-01-29T11:10:08.938Z,6.04
2017-01-29T11:11:09.319Z,6.11
2017-01-29T11:12:08.914Z,6.11
2017-01-29T11:13:09.289Z,6.14
2017-01-29T11:14:09.281Z,6.27
2017-01-29T11:15:09.272Z,6.3
2017-01-29T11:16:09.257Z,6.31
2017-01-29T11:17:09.250Z,6.28
2017-01-29T11:18:08.857Z,6.41
2017-01-29T11:19:08.839Z,6.44
2017-01-29T11:20:09.218Z,6.51
2017-01-29T11:21:09.208Z,6.52
2017-01-29T11:22:09.194Z,6.59
2017-01-29T11:23:09.187Z,6.56
2017-01-29T11:24:09.173Z,6.61
2017-01-29T11:25:09.162Z,6.7
2017-01-29T11:26:09.150Z,6.74
2017-01-29T11:27:09.138Z,6.7
2017-01-29T11:28:09.126Z,6.76
2017-01-29T11:29:09.119Z,6.76
2017-01-29T11:30:08.740Z,6.8
2017-01-29T11:31:09.090Z,6.76
2017-01-29T11:32:08.695Z,6.85
2017-01-29T11:33:08.681Z,6.85
2017-01-29T11:34:08.674Z,6.89
2017-01-29T11:35:09.083Z,6.85
2017-01-29T11:36:09.045Z,6.91
2017-01-29T11:37:09.030Z,6.99
2017-01-29T11:38:08.641Z,6.95
2017-01-29T11:39:09.004Z,6.98
2017-01-29T11:40:08.996Z,7.12
2017-01-29T11:41:08.986Z,7.1
2017-01-29T11:42:08.979Z,7.07
2017-01-29T11:43:08.962Z,7.1
2017-01-29T11:44:08.952Z,7.09
2017-01-29T11:45:08.563Z,7.17
2017-01-29T11:46:08.930Z,7.15
2017-01-29T11:47:08.925Z,7.17
2017-01-29T11:48:08.909Z,7.25
2017-01-29T11:49:08.521Z,7.3
2017-01-29T11:50:08.502Z,7.28
2017-01-29T11:51:08.880Z,7.25
2017-01-29T11:52:08.870Z,7.31
2017-01-29T11:53:08.859Z,7.3
2017-01-29T11:54:08.849Z,7.4
2017-01-29T11:55:08.838Z,7.43
2017-01-29T11:56:08.826Z,7.49
2017-01-29T11:57:08.819Z,7.46
2017-01-29T11:58:08.818Z,7.57
2017-01-29T11:59:08.796Z,7.37
2017-01-29T12:00:08.789Z,7.4
2017-01-29T12:01:08.792Z,7.46
2017-01-29T12:02:08.770Z,7.58
2017-01-29T12:03:08.757Z,7.49
2017-01-29T12:04:08.358Z,7.55
2017-01-29T12:05:08.737Z,7.55
2017-01-29T12:06:08.726Z,7.55
2017-01-29T12:07:08.715Z,7.58
2017-01-29T12:08:08.704Z,7.53
2017-01-29T12:09:08.691Z,7.68
2017-01-29T12:10:08.303Z,7.67
2017-01-29T12:11:08.681Z,7.72
2017-01-29T12:12:08.668Z,7.71
2017-01-29T12:13:08.289Z,7.71
2017-01-29T12:14:08.644Z,7.67
2017-01-29T12:15:08.635Z,7.69
2017-01-29T12:16:08.623Z,7.69
2017-01-29T12:17:08.614Z,7.82
2017-01-29T12:18:08.607Z,7.67
2017-01-29T12:19:08.590Z,7.74
2017-01-29T12:20:08.199Z,7.75
2017-01-29T12:21:08.573Z,7.74
2017-01-29T12:22:08.562Z,7.79
2017-01-29T12:23:08.552Z,7.79
2017-01-29T12:24:08.541Z,7.74
2017-01-29T12:25:08.153Z,7.92
2017-01-29T12:26:08.522Z,7.82
2017-01-29T12:27:08.509Z,7.87
2017-01-29T12:28:08.503Z,7.86
2017-01-29T12:29:08.497Z,7.89
2017-01-29T12:30:08.094Z,7.87
2017-01-29T12:31:08.471Z,7.92
2017-01-29T12:32:08.471Z,7.9
2017-01-29T12:33:08.449Z,7.86
2017-01-29T12:34:08.446Z,7.85
2017-01-29T12:35:08.430Z,7.98
2017-01-29T12:36:08.034Z,8
2017-01-29T12:37:08.410Z,7.95
2017-01-29T12:38:08.403Z,8.05
2017-01-29T12:39:08.394Z,8.02
2017-01-29T12:40:08.382Z,8.02
2017-01-29T12:41:08.378Z,8.08
2017-01-29T12:42:08.395Z,8.04
2017-01-29T12:43:08.351Z,8.04
2017-01-29T12:44:08.340Z,8.05
2017-01-29T12:45:07.953Z,8.02
2017-01-29T12:46:08.326Z,7.98
2017-01-29T12:47:08.312Z,8.12
2017-01-29T12:48:08.305Z,8.11
2017-01-29T12:49:08.291Z,8.15
2017-01-29T12:50:08.283Z,8.12
2017-01-29T12:51:08.274Z,8.15
2017-01-29T12:52:07.879Z,8.11
2017-01-29T12:53:08.258Z,8.15
2017-01-29T12:54:08.246Z,8.18
2017-01-29T12:55:08.239Z,8.1
2017-01-29T12:56:08.235Z,8.01
2017-01-29T12:57:08.215Z,8.16
2017-01-29T12:58:08.267Z,8.11
2017-01-29T12:59:07.813Z,8.18
2017-01-29T13:00:07.796Z,8.08
2017-01-29T13:01:08.176Z,8.19
2017-01-29T13:02:08.162Z,8.08
2017-01-29T13:03:08.156Z,8.15
2017-01-29T13:04:08.143Z,8.12